Time;durP1;ratioP1;P1;durP2;ratioP2;P2;SDS_P1;SDS_P2;PMS_P1;PMS_P2;Temp;Humidity;BMP_temperature;BMP_pressure;BME280_temperature;BME280_humidity;BME280_pressure;Samples;Min_cycle;Max_cycle;Signal;HPM_P1;HPM_P2
2022/01/14 00:00:09;;;;;;;;;;;-2.40;76.30;;;;;;5022476;28;19925;-77
2022/01/14 00:02:36;;;;;;;;;;;-2.40;77.00;;;;;;5026110;28;19964;-78
2022/01/14 00:05:03;;;;;;;;;;;-2.30;77.00;;;;;;5036062;28;19925;-79
2022/01/14 00:07:31;;;;;;;;;;;-2.10;75.80;;;;;;5043344;28;19979;-81
2022/01/14 00:09:57;;;;;;;;;;;-1.70;73.90;;;;;;5040525;28;20394;-81
2022/01/14 00:12:28;;;;;;;;;;;-1.50;73.00;;;;;;5036092;28;19925;-81
2022/01/14 00:17:59;;;;;;;;;;;-1.40;71.90;;;;;;5047183;28;20498;-78
2022/01/14 00:20:25;;;;;;;;;;;-1.50;71.50;;;;;;5071962;28;19925;-77
2022/01/14 00:22:52;;;;;;;;;;;-1.50;71.60;;;;;;5035649;28;19928;-77
2022/01/14 00:33:32;;;;;;;;;;;-1.70;71.20;;;;;;5063073;28;19924;-81
2022/01/14 00:35:59;;;;;;;;;;;-1.80;71.90;;;;;;5071116;28;19928;-79
2022/01/14 00:38:26;;;;;;;;;;;-1.80;72.40;;;;;;5056887;28;19924;-77
2022/01/14 00:40:53;;;;;;;;;;;-1.90;72.00;;;;;;5067501;28;19924;-78
2022/01/14 00:43:19;;;;;;;;;;;-1.90;72.20;;;;;;5071955;28;19925;-78
2022/01/14 00:45:46;;;;;;;;;;;-2.00;72.90;;;;;;5071429;28;19925;-79
2022/01/14 00:48:14;;;;;;;;;;;-2.10;73.10;;;;;;5068570;28;19936;-77
2022/01/14 00:50:44;;;;;;;;;;;-2.10;72.70;;;;;;5048099;28;19929;-78
2022/01/14 00:53:11;;;;;;;;;;;-2.20;73.40;;;;;;5068041;28;19931;-81
2022/01/14 00:55:46;;;;;;;;;;;-2.20;73.30;;;;;;5068461;28;20187;-78
2022/01/14 01:00:59;;;;;;;;;;;-2.30;73.90;;;;;;5060133;28;19978;-78
2022/01/14 01:03:27;;;;;;;;;;;-2.40;75.50;;;;;;5055041;28;20373;-79
2022/01/14 01:05:55;;;;;;;;;;;-2.30;74.20;;;;;;5042669;28;19986;-79
2022/01/14 01:08:25;;;;;;;;;;;-2.30;74.80;;;;;;5052428;28;19925;-78
2022/01/14 01:10:51;;;;;;;;;;;-2.30;74.40;;;;;;5052330;28;19982;-77
2022/01/14 01:13:30;;;;;;;;;;;-2.30;74.00;;;;;;5071475;28;20392;-78
2022/01/14 01:15:56;;;;;;;;;;;-2.30;73.60;;;;;;5035946;28;19925;-77
2022/01/14 01:18:23;;;;;;;;;;;-2.30;74.20;;;;;;5045400;28;20435;-77
2022/01/14 01:20:50;;;;;;;;;;;-2.30;74.50;;;;;;5029375;28;19924;-77
2022/01/14 01:23:18;;;;;;;;;;;-2.30;74.70;;;;;;5040266;28;19929;-78
2022/01/14 01:25:50;;;;;;;;;;;-2.20;74.90;;;;;;5050960;28;19975;-77
2022/01/14 01:28:16;;;;;;;;;;;-2.20;74.60;;;;;;5071300;28;20392;-76
2022/01/14 01:33:16;;;;;;;;;;;-2.30;73.90;;;;;;5056943;28;20431;-77
2022/01/14 01:35:43;;;;;;;;;;;-2.30;74.10;;;;;;5053499;28;19974;-79
2022/01/14 01:38:15;;;;;;;;;;;-2.40;73.90;;;;;;5048829;28;19929;-78
2022/01/14 01:40:43;;;;;;;;;;;-2.40;74.80;;;;;;5070576;28;19924;-80
2022/01/14 01:43:12;;;;;;;;;;;-2.40;74.90;;;;;;5051064;28;19929;-81
2022/01/14 01:45:39;;;;;;;;;;;-2.40;74.50;;;;;;5043598;28;19928;-77
2022/01/14 01:48:06;;;;;;;;;;;-2.40;74.50;;;;;;5046791;28;19965;-79
2022/01/14 01:50:36;;;;;;;;;;;-2.50;74.50;;;;;;5032698;28;19975;-81
2022/01/14 01:53:04;;;;;;;;;;;-2.50;74.40;;;;;;5031070;28;19925;-80
2022/01/14 01:55:31;;;;;;;;;;;-2.50;74.70;;;;;;5056050;28;20046;-82
2022/01/14 01:57:58;;;;;;;;;;;-2.60;74.80;;;;;;5034144;28;20377;-79
2022/01/14 02:00:26;;;;;;;;;;;-2.60;75.00;;;;;;5052177;28;19924;-78
2022/01/14 02:02:54;;;;;;;;;;;-2.70;75.20;;;;;;5051607;28;19928;-81
2022/01/14 02:05:22;;;;;;;;;;;-2.60;75.50;;;;;;5045676;28;19932;-77
2022/01/14 02:07:49;;;;;;;;;;;-2.60;75.60;;;;;;5036736;28;19955;-78
2022/01/14 02:10:16;;;;;;;;;;;-2.60;76.20;;;;;;5050081;28;20277;-80
2022/01/14 02:12:49;;;;;;;;;;;-2.60;76.00;;;;;;5041988;28;19979;-78
2022/01/14 02:23:29;;;;;;;;;;;-2.70;76.00;;;;;;5059123;28;19929;-78
2022/01/14 02:25:56;;;;;;;;;;;-2.70;75.90;;;;;;5042490;28;19932;-78
2022/01/14 02:28:23;;;;;;;;;;;-2.70;75.90;;;;;;5062207;28;20376;-78
2022/01/14 02:30:50;;;;;;;;;;;-2.70;75.50;;;;;;5067133;28;20331;-78
2022/01/14 02:33:18;;;;;;;;;;;-2.70;76.50;;;;;;5024823;28;19929;-81
2022/01/14 02:35:46;;;;;;;;;;;-2.70;76.00;;;;;;5028482;28;19987;-80
2022/01/14 02:38:13;;;;;;;;;;;-2.70;75.90;;;;;;5049956;28;19974;-77
2022/01/14 02:40:41;;;;;;;;;;;-2.80;75.60;;;;;;5033789;28;19966;-77
2022/01/14 02:43:12;;;;;;;;;;;-2.80;76.20;;;;;;5033897;28;20368;-79
2022/01/14 02:45:40;;;;;;;;;;;-2.80;76.00;;;;;;5054369;28;19929;-77
2022/01/14 02:48:07;;;;;;;;;;;-2.80;76.80;;;;;;5074458;28;19975;-79
2022/01/14 02:50:41;;;;;;;;;;;-2.80;76.80;;;;;;5045355;28;19958;-78
2022/01/14 02:56:17;;;;;;;;;;;-2.70;76.50;;;;;;4990872;28;20452;-81
2022/01/14 02:58:44;;;;;;;;;;;-2.60;76.10;;;;;;5044972;28;19928;-79
2022/01/14 03:01:24;;;;;;;;;;;-2.60;75.80;;;;;;5056940;28;19950;-78
2022/01/14 03:03:55;;;;;;;;;;;-2.70;75.60;;;;;;5029923;28;19974;-80
2022/01/14 03:06:22;;;;;;;;;;;-2.70;75.70;;;;;;5041933;28;19925;-81
2022/01/14 03:08:49;;;;;;;;;;;-2.70;75.70;;;;;;5031443;28;19986;-81
2022/01/14 03:11:28;;;;;;;;;;;-2.90;76.60;;;;;;5054825;28;19943;-81
2022/01/14 03:13:55;;;;;;;;;;;-2.90;76.50;;;;;;5074701;28;19989;-77
2022/01/14 03:16:21;;;;;;;;;;;-2.90;76.10;;;;;;5032446;28;19929;-81
2022/01/14 03:18:51;;;;;;;;;;;-2.90;75.80;;;;;;5054782;28;19928;-78
2022/01/14 03:21:27;;;;;;;;;;;-3.00;76.20;;;;;;5053284;28;19975;-77
2022/01/14 03:24:05;;;;;;;;;;;-3.00;76.50;;;;;;5047724;28;20396;-77
2022/01/14 03:26:32;;;;;;;;;;;-3.00;76.80;;;;;;5070812;28;19929;-77
2022/01/14 03:28:59;;;;;;;;;;;-3.00;76.70;;;;;;5054659;28;19974;-81
2022/01/14 03:31:26;;;;;;;;;;;-3.00;76.90;;;;;;5044193;28;19928;-81
2022/01/14 03:33:53;;;;;;;;;;;-3.00;77.00;;;;;;5051218;28;20407;-77
2022/01/14 03:36:19;;;;;;;;;;;-3.00;77.90;;;;;;5041149;28;19932;-77
2022/01/14 03:38:46;;;;;;;;;;;-2.90;77.80;;;;;;5056594;28;19929;-78
2022/01/14 03:41:13;;;;;;;;;;;-2.80;77.50;;;;;;5047286;28;19932;-78
2022/01/14 03:43:41;;;;;;;;;;;-2.70;76.90;;;;;;5058792;28;20320;-79
2022/01/14 03:46:08;;;;;;;;;;;-2.70;76.40;;;;;;5059868;28;20012;-77
2022/01/14 03:48:35;;;;;;;;;;;-2.70;76.50;;;;;;5029509;28;19936;-81
2022/01/14 03:51:03;;;;;;;;;;;-2.70;76.00;;;;;;5040302;28;20339;-79
2022/01/14 03:53:30;;;;;;;;;;;-2.80;76.00;;;;;;5061034;28;20409;-81
2022/01/14 03:55:57;;;;;;;;;;;-2.80;75.60;;;;;;5042235;28;19925;-78
2022/01/14 03:58:37;;;;;;;;;;;-2.90;76.00;;;;;;5038473;28;19975;-77
2022/01/14 04:01:06;;;;;;;;;;;-2.90;76.00;;;;;;5038179;28;19979;-78
2022/01/14 04:03:34;;;;;;;;;;;-3.00;76.00;;;;;;5034408;28;19933;-77
2022/01/14 04:06:01;;;;;;;;;;;-3.00;77.00;;;;;;5059562;28;19928;-77
2022/01/14 04:08:27;;;;;;;;;;;-3.00;76.90;;;;;;5047705;28;19924;-81
2022/01/14 04:10:56;;;;;;;;;;;-3.10;77.60;;;;;;5053082;28;19929;-80
2022/01/14 04:13:35;;;;;;;;;;;-3.10;77.50;;;;;;5025867;28;19975;-77
2022/01/14 04:16:02;;;;;;;;;;;-3.10;77.70;;;;;;5019366;28;19975;-79
2022/01/14 04:18:29;;;;;;;;;;;-3.10;78.00;;;;;;5028229;28;20016;-77
2022/01/14 04:20:56;;;;;;;;;;;-3.00;78.10;;;;;;5029284;28;19944;-77
2022/01/14 04:23:23;;;;;;;;;;;-3.00;77.60;;;;;;5031860;28;19925;-80
2022/01/14 04:25:54;;;;;;;;;;;-3.00;77.50;;;;;;5051472;28;19991;-78
2022/01/14 04:28:21;;;;;;;;;;;-3.00;77.20;;;;;;5032762;28;20025;-77
2022/01/14 04:30:54;;;;;;;;;;;-3.00;77.40;;;;;;5020474;28;19975;-80
2022/01/14 04:33:22;;;;;;;;;;;-3.00;77.30;;;;;;5018883;28;20407;-81
2022/01/14 04:35:49;;;;;;;;;;;-2.90;76.90;;;;;;5065502;28;19975;-80
2022/01/14 04:38:15;;;;;;;;;;;-2.90;77.20;;;;;;5027982;28;19925;-80
2022/01/14 04:40:42;;;;;;;;;;;-2.90;76.90;;;;;;5056026;28;19929;-78
2022/01/14 04:43:09;;;;;;;;;;;-2.80;77.30;;;;;;5030845;28;19929;-79
2022/01/14 04:48:07;;;;;;;;;;;-2.80;77.10;;;;;;5033323;28;19929;-78
2022/01/14 04:50:34;;;;;;;;;;;-2.70;77.20;;;;;;5031448;28;19975;-78
2022/01/14 04:53:01;;;;;;;;;;;-2.70;76.60;;;;;;5062382;28;19936;-78
2022/01/14 04:55:28;;;;;;;;;;;-2.70;76.70;;;;;;5031472;28;19929;-79
2022/01/14 04:57:55;;;;;;;;;;;-2.70;76.50;;;;;;5056925;28;20294;-78
2022/01/14 05:00:23;;;;;;;;;;;-2.70;76.00;;;;;;5031296;28;19926;-80
2022/01/14 05:02:54;;;;;;;;;;;-2.70;76.30;;;;;;5031936;28;19925;-81
2022/01/14 05:05:24;;;;;;;;;;;-2.70;76.90;;;;;;5031708;28;19971;-81
2022/01/14 05:07:51;;;;;;;;;;;-2.70;77.10;;;;;;5031525;28;19926;-77
2022/01/14 05:12:45;;;;;;;;;;;-2.60;76.60;;;;;;5018616;28;19928;-81
2022/01/14 05:15:13;;;;;;;;;;;-2.70;76.10;;;;;;5037858;28;19979;-77
2022/01/14 05:17:41;;;;;;;;;;;-2.80;77.20;;;;;;5018112;28;19925;-79
2022/01/14 05:20:08;;;;;;;;;;;-2.90;76.60;;;;;;5026191;28;19925;-81
2022/01/14 05:22:35;;;;;;;;;;;-2.90;76.70;;;;;;5028813;28;20417;-77
2022/01/14 05:25:03;;;;;;;;;;;-3.00;76.50;;;;;;5052245;28;19925;-81
2022/01/14 05:27:29;;;;;;;;;;;-3.00;76.30;;;;;;5034056;28;19929;-80
2022/01/14 05:29:56;;;;;;;;;;;-3.00;76.80;;;;;;5034416;28;20015;-80
2022/01/14 05:32:24;;;;;;;;;;;-3.00;77.90;;;;;;5034022;28;19982;-77
2022/01/14 05:34:54;;;;;;;;;;;-2.90;77.80;;;;;;5048417;28;19929;-81
2022/01/14 05:37:21;;;;;;;;;;;-2.90;77.50;;;;;;5023235;28;19933;-81
2022/01/14 05:39:47;;;;;;;;;;;-2.90;77.40;;;;;;5021691;28;19929;-81
2022/01/14 05:42:14;;;;;;;;;;;-2.90;77.20;;;;;;5051336;28;19929;-79
2022/01/14 05:44:41;;;;;;;;;;;-2.90;77.10;;;;;;5039259;28;19929;-79
2022/01/14 05:47:14;;;;;;;;;;;-2.90;76.80;;;;;;5046509;28;20498;-79
2022/01/14 05:49:40;;;;;;;;;;;-2.90;77.00;;;;;;5030650;28;19929;-79
2022/01/14 05:52:07;;;;;;;;;;;-2.90;77.00;;;;;;5048435;28;19970;-77
2022/01/14 05:54:35;;;;;;;;;;;-3.00;77.00;;;;;;5050403;28;19932;-81
2022/01/14 05:57:02;;;;;;;;;;;-2.90;77.30;;;;;;5038421;28;20312;-79
2022/01/14 05:59:28;;;;;;;;;;;-3.00;77.00;;;;;;5044154;28;20377;-78
2022/01/14 06:01:55;;;;;;;;;;;-3.00;77.20;;;;;;5053657;28;20470;-77
2022/01/14 06:04:22;;;;;;;;;;;-3.10;77.40;;;;;;5033616;28;19975;-78
2022/01/14 06:06:49;;;;;;;;;;;-3.00;77.20;;;;;;5056017;28;19936;-78
2022/01/14 06:09:15;;;;;;;;;;;-3.00;77.00;;;;;;5038088;28;19925;-78
2022/01/14 06:11:42;;;;;;;;;;;-3.10;77.10;;;;;;5060533;28;19929;-78
2022/01/14 06:14:09;;;;;;;;;;;-3.10;77.00;;;;;;5068185;28;19928;-80
2022/01/14 06:16:36;;;;;;;;;;;-3.10;76.80;;;;;;5048129;28;20437;-78
2022/01/14 06:19:03;;;;;;;;;;;-3.10;76.60;;;;;;5054070;28;19924;-78
2022/01/14 06:21:30;;;;;;;;;;;-3.10;76.70;;;;;;5062094;28;19929;-78
2022/01/14 06:23:56;;;;;;;;;;;-3.20;77.00;;;;;;5046182;28;19928;-78
2022/01/14 06:26:23;;;;;;;;;;;-3.10;77.50;;;;;;5056854;28;19932;-80
2022/01/14 06:28:51;;;;;;;;;;;-3.10;77.30;;;;;;5042522;28;19929;-78
2022/01/14 06:31:18;;;;;;;;;;;-3.10;77.60;;;;;;5045861;28;19925;-78
2022/01/14 06:33:45;;;;;;;;;;;-3.10;77.00;;;;;;5054838;28;20004;-78
2022/01/14 06:36:13;;;;;;;;;;;-3.20;77.00;;;;;;5041173;28;19933;-78
2022/01/14 06:38:40;;;;;;;;;;;-3.30;77.20;;;;;;5052444;28;20445;-78
2022/01/14 06:41:06;;;;;;;;;;;-3.30;77.20;;;;;;5055758;28;19975;-81
2022/01/14 06:43:33;;;;;;;;;;;-3.40;77.40;;;;;;5062816;28;19929;-80
2022/01/14 06:46:00;;;;;;;;;;;-3.50;77.80;;;;;;5061972;28;19947;-79
2022/01/14 06:48:27;;;;;;;;;;;-3.50;78.50;;;;;;5073923;28;19931;-80
2022/01/14 06:50:55;;;;;;;;;;;-3.40;78.10;;;;;;5061924;28;19935;-78
2022/01/14 06:53:21;;;;;;;;;;;-3.40;77.80;;;;;;5057768;28;19979;-80
2022/01/14 06:55:48;;;;;;;;;;;-3.50;77.60;;;;;;5039006;28;19928;-78
2022/01/14 06:58:15;;;;;;;;;;;-3.50;77.50;;;;;;5032893;28;19924;-79
2022/01/14 07:00:42;;;;;;;;;;;-3.50;78.60;;;;;;5049989;28;19929;-78
2022/01/14 07:03:09;;;;;;;;;;;-3.50;78.70;;;;;;5034292;28;19969;-78
2022/01/14 07:05:35;;;;;;;;;;;-3.50;79.30;;;;;;5038833;28;19932;-78
2022/01/14 07:08:02;;;;;;;;;;;-3.60;79.00;;;;;;5062876;28;19925;-79
2022/01/14 07:10:34;;;;;;;;;;;-3.80;79.00;;;;;;5048546;28;19936;-79
2022/01/14 07:13:01;;;;;;;;;;;-3.90;79.20;;;;;;5055376;28;19935;-80
2022/01/14 07:15:28;;;;;;;;;;;-3.90;79.10;;;;;;5045470;28;19978;-78
2022/01/14 07:17:56;;;;;;;;;;;-3.90;78.90;;;;;;5055478;28;19924;-80
2022/01/14 07:20:23;;;;;;;;;;;-3.90;78.90;;;;;;5074624;28;20312;-78
2022/01/14 07:22:50;;;;;;;;;;;-3.90;79.50;;;;;;5049911;28;19982;-80
2022/01/14 07:25:17;;;;;;;;;;;-3.90;80.20;;;;;;5053017;28;19935;-78
2022/01/14 07:27:44;;;;;;;;;;;-3.80;81.60;;;;;;5041290;28;19933;-80
2022/01/14 07:30:12;;;;;;;;;;;-3.80;81.00;;;;;;5067338;28;19924;-80
2022/01/14 07:32:39;;;;;;;;;;;-3.70;80.60;;;;;;5054562;28;19928;-79
2022/01/14 07:35:06;;;;;;;;;;;-3.70;80.30;;;;;;5042963;28;19925;-80
2022/01/14 07:37:33;;;;;;;;;;;-3.80;80.10;;;;;;5043923;28;19992;-78
2022/01/14 07:40:00;;;;;;;;;;;-3.80;79.90;;;;;;5052258;28;19975;-77
2022/01/14 07:42:27;;;;;;;;;;;-3.80;80.00;;;;;;5058312;28;19939;-80
2022/01/14 07:44:54;;;;;;;;;;;-3.80;79.90;;;;;;5049529;28;19948;-78
2022/01/14 07:47:21;;;;;;;;;;;-3.70;79.70;;;;;;5060167;28;19932;-79
2022/01/14 07:49:47;;;;;;;;;;;-3.70;80.00;;;;;;5035762;28;19925;-78
2022/01/14 07:52:14;;;;;;;;;;;-3.60;81.30;;;;;;5047387;28;19929;-81
2022/01/14 07:54:41;;;;;;;;;;;-3.50;81.90;;;;;;5043802;28;19925;-78
2022/01/14 07:57:08;;;;;;;;;;;-3.10;81.80;;;;;;5044295;28;20392;-79
2022/01/14 07:59:36;;;;;;;;;;;-2.30;80.10;;;;;;5047072;28;19924;-79
2022/01/14 08:02:05;;;;;;;;;;;-1.90;77.10;;;;;;5058503;28;19933;-79
2022/01/14 08:04:34;;;;;;;;;;;-1.50;76.10;;;;;;5032954;28;19925;-79
2022/01/14 08:07:12;;;;;;;;;;;-1.30;74.80;;;;;;5072667;28;19924;-79
2022/01/14 08:09:39;;;;;;;;;;;-1.30;75.60;;;;;;5029813;28;19925;-78
2022/01/14 08:12:07;;;;;;;;;;;-1.20;76.00;;;;;;5046246;28;19929;-78
2022/01/14 08:14:34;;;;;;;;;;;-1.00;74.90;;;;;;5041956;28;19924;-78
2022/01/14 08:17:01;;;;;;;;;;;-0.80;75.00;;;;;;5073741;28;19928;-78
2022/01/14 08:19:32;;;;;;;;;;;-0.70;74.50;;;;;;5066169;28;19933;-79
2022/01/14 08:22:01;;;;;;;;;;;-0.50;74.10;;;;;;5035062;28;19925;-80
2022/01/14 08:24:29;;;;;;;;;;;-0.20;73.20;;;;;;5049915;28;19925;-79
2022/01/14 08:26:56;;;;;;;;;;;-0.10;72.40;;;;;;5032827;28;19937;-79
2022/01/14 08:29:23;;;;;;;;;;;0.00;71.30;;;;;;5038844;28;20404;-79
2022/01/14 08:31:50;;;;;;;;;;;0.20;71.00;;;;;;5028455;28;19988;-78
2022/01/14 08:34:17;;;;;;;;;;;0.40;70.10;;;;;;5046465;28;19924;-80
2022/01/14 08:36:43;;;;;;;;;;;0.70;68.90;;;;;;5037433;28;19924;-79
2022/01/14 08:39:10;;;;;;;;;;;1.00;68.80;;;;;;5068825;28;19975;-79
2022/01/14 08:41:38;;;;;;;;;;;1.20;68.40;;;;;;5038851;28;19925;-80
2022/01/14 08:44:06;;;;;;;;;;;1.50;67.70;;;;;;5037927;28;19935;-79
2022/01/14 08:46:49;;;;;;;;;;;1.60;66.90;;;;;;5040107;28;19929;-79
2022/01/14 08:49:16;;;;;;;;;;;1.80;67.30;;;;;;5045123;28;19939;-78
2022/01/14 08:51:43;;;;;;;;;;;2.00;67.30;;;;;;5052242;28;19995;-78
2022/01/14 08:54:10;;;;;;;;;;;2.20;66.50;;;;;;5051772;28;19924;-78
2022/01/14 08:56:37;;;;;;;;;;;2.40;66.00;;;;;;5035980;28;19975;-79
2022/01/14 08:59:04;;;;;;;;;;;2.60;65.60;;;;;;5031897;28;19936;-77
2022/01/14 09:01:31;;;;;;;;;;;2.70;65.40;;;;;;5037374;28;19925;-76
2022/01/14 09:03:58;;;;;;;;;;;2.80;65.80;;;;;;5037902;28;19975;-77
2022/01/14 09:06:25;;;;;;;;;;;2.90;65.80;;;;;;5041764;28;19930;-78
2022/01/14 09:08:52;;;;;;;;;;;3.00;65.60;;;;;;5049224;28;19929;-76
2022/01/14 09:11:19;;;;;;;;;;;3.00;62.80;;;;;;5037803;28;20444;-77
2022/01/14 09:13:46;;;;;;;;;;;3.20;62.90;;;;;;5056404;28;19929;-76
2022/01/14 09:16:13;;;;;;;;;;;3.40;63.00;;;;;;5050558;28;19986;-76
2022/01/14 09:18:40;;;;;;;;;;;3.50;61.30;;;;;;5028484;28;19929;-77
2022/01/14 09:21:06;;;;;;;;;;;3.70;62.00;;;;;;5035777;28;19979;-77
2022/01/14 09:23:37;;;;;;;;;;;3.90;61.50;;;;;;5030706;28;20304;-78
2022/01/14 09:26:04;;;;;;;;;;;4.00;62.40;;;;;;5055336;28;20513;-76
2022/01/14 09:28:33;;;;;;;;;;;4.20;61.80;;;;;;5047737;28;19958;-76
2022/01/14 09:30:59;;;;;;;;;;;4.30;61.50;;;;;;5016945;28;19933;-77
2022/01/14 09:33:27;;;;;;;;;;;4.50;60.70;;;;;;5018840;28;20305;-76
2022/01/14 09:35:54;;;;;;;;;;;4.70;60.70;;;;;;5052717;28;19937;-76
2022/01/14 09:38:22;;;;;;;;;;;4.80;59.30;;;;;;5017154;28;19933;-76
2022/01/14 09:40:49;;;;;;;;;;;4.90;58.80;;;;;;5030513;28;19932;-76
2022/01/14 09:43:16;;;;;;;;;;;5.10;58.60;;;;;;5048215;28;19929;-79
2022/01/14 09:46:01;;;;;;;;;;;5.20;59.70;;;;;;5022693;28;19932;-76
2022/01/14 09:48:28;;;;;;;;;;;5.30;58.80;;;;;;5014435;28;19925;-76
2022/01/14 09:50:55;;;;;;;;;;;5.40;56.40;;;;;;5024837;28;19929;-78
2022/01/14 09:53:22;;;;;;;;;;;5.50;55.70;;;;;;5018641;28;19925;-77
2022/01/14 09:55:49;;;;;;;;;;;5.60;55.90;;;;;;5022400;28;20506;-78
2022/01/14 09:58:16;;;;;;;;;;;5.80;56.10;;;;;;5028330;28;20000;-78
2022/01/14 10:00:43;;;;;;;;;;;6.00;54.90;;;;;;5057299;28;19925;-77
2022/01/14 10:03:23;;;;;;;;;;;6.20;54.80;;;;;;5023753;28;19932;-77
2022/01/14 10:05:56;;;;;;;;;;;6.40;54.40;;;;;;5031325;28;19926;-77
2022/01/14 10:08:27;;;;;;;;;;;6.60;53.70;;;;;;5064118;28;20002;-76
2022/01/14 10:10:56;;;;;;;;;;;6.70;53.20;;;;;;5030699;28;19941;-77
2022/01/14 10:13:25;;;;;;;;;;;6.90;53.00;;;;;;5032416;28;19929;-77
2022/01/14 10:15:53;;;;;;;;;;;7.00;51.80;;;;;;5029657;28;19948;-77
2022/01/14 10:18:21;;;;;;;;;;;7.00;52.70;;;;;;5030450;28;19929;-77
2022/01/14 10:20:49;;;;;;;;;;;7.00;51.60;;;;;;5062972;28;19932;-78
2022/01/14 10:23:16;;;;;;;;;;;7.00;52.10;;;;;;5030803;28;20427;-76
2022/01/14 10:25:55;;;;;;;;;;;7.10;51.40;;;;;;5031780;28;19975;-78
2022/01/14 10:28:22;;;;;;;;;;;7.20;51.80;;;;;;5033104;28;19925;-76
2022/01/14 10:30:49;;;;;;;;;;;7.50;51.30;;;;;;5031666;28;19948;-77
2022/01/14 10:33:27;;;;;;;;;;;7.60;50.90;;;;;;5061120;28;19932;-77
2022/01/14 10:35:54;;;;;;;;;;;7.80;49.90;;;;;;5031096;28;20389;-77
2022/01/14 10:38:22;;;;;;;;;;;8.00;49.10;;;;;;5048489;28;19929;-78
2022/01/14 10:40:55;;;;;;;;;;;8.10;47.90;;;;;;5019376;28;19929;-77
2022/01/14 10:43:29;;;;;;;;;;;8.30;47.80;;;;;;5017952;28;20401;-77
2022/01/14 10:45:56;;;;;;;;;;;8.40;48.40;;;;;;5029460;28;19925;-78
2022/01/14 10:48:31;;;;;;;;;;;8.50;47.80;;;;;;5030217;28;20795;-77
2022/01/14 10:51:05;;;;;;;;;;;8.70;45.40;;;;;;5029471;28;19925;-77
2022/01/14 10:53:32;;;;;;;;;;;8.90;45.20;;;;;;5030781;28;19929;-78
2022/01/14 10:56:09;;;;;;;;;;;9.10;43.60;;;;;;5025490;28;20011;-78
2022/01/14 10:58:58;;;;;;;;;;;9.20;41.70;;;;;;5016116;28;20439;-76
2022/01/14 11:01:26;;;;;;;;;;;9.40;41.40;;;;;;5030141;28;19948;-78
2022/01/14 11:03:57;;;;;;;;;;;9.50;41.80;;;;;;5027091;28;19930;-78
2022/01/14 11:06:28;;;;;;;;;;;9.70;40.30;;;;;;5030661;28;20421;-79
2022/01/14 11:09:05;;;;;;;;;;;9.80;38.90;;;;;;5041310;28;19948;-77
2022/01/14 11:11:33;;;;;;;;;;;9.90;40.90;;;;;;5050462;28;20484;-78
2022/01/14 11:14:01;;;;;;;;;;;10.00;41.00;;;;;;5038682;28;20464;-81
2022/01/14 11:16:28;;;;;;;;;;;10.10;40.60;;;;;;5036592;28;19932;-79
2022/01/14 11:18:58;;;;;;;;;;;10.20;38.70;;;;;;5038185;28;20452;-78
2022/01/14 11:24:18;;;;;;;;;;;10.40;38.10;;;;;;5028627;28;20399;-79
2022/01/14 11:26:46;;;;;;;;;;;10.60;38.70;;;;;;5041814;28;19932;-78
2022/01/14 11:29:15;;;;;;;;;;;10.70;38.30;;;;;;5042446;28;20389;-79
2022/01/14 11:31:43;;;;;;;;;;;10.90;38.00;;;;;;5033542;28;19926;-78
2022/01/14 11:34:30;;;;;;;;;;;11.00;39.20;;;;;;5033930;28;19932;-79
2022/01/14 11:36:58;;;;;;;;;;;11.20;37.50;;;;;;5044622;28;19975;-79
2022/01/14 11:39:31;;;;;;;;;;;11.20;37.80;;;;;;5053004;28;19925;-78
2022/01/14 11:41:59;;;;;;;;;;;11.40;37.90;;;;;;5031480;28;19925;-81
2022/01/14 11:44:41;;;;;;;;;;;11.60;38.20;;;;;;5050448;28;19925;-76
2022/01/14 11:47:36;;;;;;;;;;;11.80;36.80;;;;;;5029535;28;19925;-78
2022/01/14 11:50:05;;;;;;;;;;;11.90;35.90;;;;;;5059919;28;19929;-78
2022/01/14 11:52:40;;;;;;;;;;;12.10;36.00;;;;;;5025393;28;19925;-77
2022/01/14 11:55:19;;;;;;;;;;;12.20;34.70;;;;;;5044337;28;20479;-80
2022/01/14 11:57:47;;;;;;;;;;;12.40;34.50;;;;;;5054020;28;19925;-80
2022/01/14 12:03:13;;;;;;;;;;;12.60;33.80;;;;;;5023080;28;20405;-81
2022/01/14 12:06:05;;;;;;;;;;;12.70;32.30;;;;;;5033148;28;19951;-80
2022/01/14 12:08:33;;;;;;;;;;;12.80;32.80;;;;;;5048796;28;19924;-82
2022/01/14 12:11:06;;;;;;;;;;;13.00;33.80;;;;;;5053090;28;20377;-77
2022/01/14 12:13:54;;;;;;;;;;;13.10;33.40;;;;;;5035362;28;20751;-77
2022/01/14 12:18:58;;;;;;;;;;;13.40;31.60;;;;;;5051437;28;19925;-80
2022/01/14 12:21:51;;;;;;;;;;;13.60;30.30;;;;;;5046057;28;19931;-79
2022/01/14 12:24:18;;;;;;;;;;;13.60;30.30;;;;;;5024835;28;20349;-77
2022/01/14 12:26:51;;;;;;;;;;;13.70;29.10;;;;;;5040206;28;19932;-77
2022/01/14 12:29:31;;;;;;;;;;;13.70;29.40;;;;;;5066137;28;20435;-79
2022/01/14 12:32:05;;;;;;;;;;;13.90;29.30;;;;;;5056676;28;19924;-79
2022/01/14 12:34:33;;;;;;;;;;;14.00;28.90;;;;;;5027280;28;19925;-79
2022/01/14 12:37:00;;;;;;;;;;;14.10;28.50;;;;;;5040662;28;19928;-77
2022/01/14 12:39:27;;;;;;;;;;;14.30;29.70;;;;;;5029190;28;20384;-79
2022/01/14 12:41:55;;;;;;;;;;;14.50;28.80;;;;;;5039937;28;19929;-79
2022/01/14 12:44:23;;;;;;;;;;;14.50;28.50;;;;;;5030025;28;20447;-80
2022/01/14 12:47:00;;;;;;;;;;;14.60;28.30;;;;;;5032775;28;19926;-78
2022/01/14 12:49:34;;;;;;;;;;;14.70;28.40;;;;;;5032297;28;19925;-79
2022/01/14 12:52:09;;;;;;;;;;;14.80;27.70;;;;;;5057010;28;20409;-79
2022/01/14 12:54:37;;;;;;;;;;;14.80;28.00;;;;;;5043600;28;20015;-78
2022/01/14 12:57:04;;;;;;;;;;;14.90;28.40;;;;;;5033974;28;19933;-77
2022/01/14 12:59:41;;;;;;;;;;;14.70;26.60;;;;;;5032234;28;19929;-77
2022/01/14 13:02:14;;;;;;;;;;;14.70;28.20;;;;;;5030188;28;19931;-77
2022/01/14 13:04:41;;;;;;;;;;;14.90;28.50;;;;;;5041842;28;19925;-81
2022/01/14 13:07:09;;;;;;;;;;;15.00;28.60;;;;;;5070436;28;19925;-80
2022/01/14 13:09:38;;;;;;;;;;;15.10;28.90;;;;;;5027032;28;19932;-82
2022/01/14 13:12:06;;;;;;;;;;;15.20;28.10;;;;;;5047803;28;19951;-79
2022/01/14 13:15:17;;;;;;;;;;;15.10;27.60;;;;;;5047803;28;19948;-80
2022/01/14 13:17:26;;;;;;;;;;;15.00;27.80;;;;;;5053667;28;19925;-80
2022/01/14 13:19:57;;;;;;;;;;;15.10;27.60;;;;;;5039114;28;20384;-79
2022/01/14 13:22:25;;;;;;;;;;;15.10;27.90;;;;;;5033776;28;19936;-79
2022/01/14 13:24:53;;;;;;;;;;;15.10;28.30;;;;;;5033456;28;20444;-80
2022/01/14 13:27:42;;;;;;;;;;;15.10;28.70;;;;;;5043044;28;19929;-79
2022/01/14 13:30:12;;;;;;;;;;;15.20;28.20;;;;;;5022117;28;20399;-82
2022/01/14 13:32:39;;;;;;;;;;;15.20;27.80;;;;;;5044655;28;19986;-80
2022/01/14 13:35:05;;;;;;;;;;;15.20;28.00;;;;;;5029768;28;19925;-80
2022/01/14 13:37:32;;;;;;;;;;;15.20;28.00;;;;;;5048420;28;19924;-80
2022/01/14 13:40:13;;;;;;;;;;;15.20;29.00;;;;;;5037799;28;19929;-82
2022/01/14 13:42:42;;;;;;;;;;;15.30;30.70;;;;;;5042213;28;19925;-82
2022/01/14 13:45:18;;;;;;;;;;;15.30;30.10;;;;;;5034084;28;20451;-79
2022/01/14 13:47:55;;;;;;;;;;;15.10;29.70;;;;;;5052840;28;19935;-81
2022/01/14 13:50:22;;;;;;;;;;;14.90;30.00;;;;;;5050969;28;19924;-79
2022/01/14 13:52:55;;;;;;;;;;;14.70;30.30;;;;;;5048856;28;19938;-81
2022/01/14 13:55:30;;;;;;;;;;;14.60;31.20;;;;;;5045726;28;19925;-81
2022/01/14 13:58:03;;;;;;;;;;;14.50;31.20;;;;;;5061850;28;20376;-81
2022/01/14 14:00:30;;;;;;;;;;;14.50;32.10;;;;;;5035572;28;20011;-76
2022/01/14 14:02:57;;;;;;;;;;;14.60;32.50;;;;;;5040785;28;20382;-79
2022/01/14 14:05:38;;;;;;;;;;;14.60;31.20;;;;;;5041814;28;19936;-80
2022/01/14 14:08:10;;;;;;;;;;;14.70;32.00;;;;;;5055630;28;19929;-77
2022/01/14 14:16:32;;;;;;;;;;;14.70;30.10;;;;;;5067900;28;19924;-77
2022/01/14 14:18:59;;;;;;;;;;;14.70;30.80;;;;;;5055030;28;20742;-78
2022/01/14 14:21:29;;;;;;;;;;;14.60;29.80;;;;;;5053405;28;19924;-80
2022/01/14 14:23:56;;;;;;;;;;;14.50;30.00;;;;;;5054518;28;19924;-80
2022/01/14 14:26:29;;;;;;;;;;;14.50;30.70;;;;;;5045257;28;19929;-79
2022/01/14 14:29:00;;;;;;;;;;;14.40;30.50;;;;;;5039140;28;19932;-80
2022/01/14 14:31:31;;;;;;;;;;;14.30;29.00;;;;;;5045087;28;19950;-79
2022/01/14 14:33:58;;;;;;;;;;;14.20;29.10;;;;;;5057446;28;20305;-77
2022/01/14 14:36:27;;;;;;;;;;;14.10;27.90;;;;;;5052880;28;19928;-77
2022/01/14 14:38:55;;;;;;;;;;;14.00;28.50;;;;;;5036122;28;19929;-78
2022/01/14 14:41:25;;;;;;;;;;;13.90;27.80;;;;;;5050270;28;19924;-80
2022/01/14 14:43:52;;;;;;;;;;;13.90;27.80;;;;;;5058044;28;19924;-80
2022/01/14 14:46:19;;;;;;;;;;;13.80;28.00;;;;;;5044558;28;19925;-80
2022/01/14 14:48:48;;;;;;;;;;;13.70;28.10;;;;;;5058143;28;19985;-77
2022/01/14 14:51:15;;;;;;;;;;;13.70;28.60;;;;;;5046086;28;19978;-81
2022/01/14 14:53:42;;;;;;;;;;;13.70;28.50;;;;;;5071929;28;19939;-80
2022/01/14 14:56:10;;;;;;;;;;;13.70;28.10;;;;;;5074778;28;20455;-78
2022/01/14 14:58:38;;;;;;;;;;;13.70;27.70;;;;;;5045693;28;19929;-78
2022/01/14 15:01:07;;;;;;;;;;;13.80;27.90;;;;;;5044611;28;19936;-77
2022/01/14 15:03:35;;;;;;;;;;;13.80;28.40;;;;;;5042327;28;20415;-80
2022/01/14 15:06:02;;;;;;;;;;;13.90;28.60;;;;;;5052214;28;20008;-81
2022/01/14 15:08:29;;;;;;;;;;;13.80;28.90;;;;;;5051489;28;19924;-78
2022/01/14 15:10:56;;;;;;;;;;;13.80;29.20;;;;;;5034455;28;19929;-77
2022/01/14 15:13:23;;;;;;;;;;;13.80;29.90;;;;;;5039274;28;20024;-79
2022/01/14 15:16:12;;;;;;;;;;;13.80;29.20;;;;;;5033903;28;19929;-80